createdAt,value
2023-02-22T00:01:09.637Z,100504.91
2023-02-22T00:03:13.021Z,100503.38
2023-02-22T00:05:16.805Z,100510.22
2023-02-22T00:07:18.425Z,100508.31
2023-02-22T00:09:21.780Z,100503.22
2023-02-22T00:11:24.346Z,100501.59
2023-02-22T00:13:26.473Z,100498.94
2023-02-22T00:15:28.077Z,100505.72
2023-02-22T00:17:29.669Z,100502.00
2023-02-22T00:19:31.393Z,100501.47
2023-02-22T00:21:34.321Z,100505.03
2023-02-22T00:23:37.090Z,100493.72
2023-02-22T00:25:38.671Z,100494.56
2023-02-22T00:27:40.366Z,100494.38
2023-02-22T00:29:45.085Z,100492.66
2023-02-22T00:31:46.646Z,100488.03
2023-02-22T00:33:48.278Z,100489.09
2023-02-22T00:35:49.940Z,100493.75
2023-02-22T00:37:55.148Z,100491.69
2023-02-22T00:39:57.018Z,100488.75
2023-02-22T00:41:58.656Z,100498.75
2023-02-22T00:44:00.227Z,100498.28
2023-02-22T00:46:02.150Z,100490.47
2023-02-22T00:48:05.937Z,100489.94
2023-02-22T00:50:07.970Z,100484.53
2023-02-22T00:52:09.786Z,100489.41
2023-02-22T00:54:12.726Z,100484.34
2023-02-22T00:56:14.335Z,100484.34
2023-02-22T00:58:16.510Z,100481.34
2023-02-22T01:00:20.330Z,100476.22
2023-02-22T01:02:21.929Z,100465.41
2023-02-22T01:04:23.626Z,100470.06
2023-02-22T01:06:25.362Z,100470.06
2023-02-22T01:08:26.901Z,100466.50
2023-02-22T01:10:31.330Z,100471.69
2023-02-22T01:12:32.951Z,100461.91
2023-02-22T01:14:36.818Z,100458.19
2023-02-22T01:16:38.810Z,100462.22
2023-02-22T01:18:40.492Z,100460.06
2023-02-22T01:20:42.046Z,100464.13
2023-02-22T01:22:45.672Z,100470.38
2023-02-22T01:24:47.679Z,100454.03
2023-02-22T01:26:52.312Z,100462.75
2023-02-22T01:28:53.875Z,100465.44
2023-02-22T01:30:55.502Z,100453.09
2023-02-22T01:32:57.423Z,100458.19
2023-02-22T01:34:59.036Z,100457.03
2023-02-22T01:37:00.737Z,100453.75
2023-02-22T01:39:02.869Z,100454.84
2023-02-22T01:41:05.654Z,100455.41
2023-02-22T01:43:18.829Z,100459.72
2023-02-22T01:45:41.861Z,100456.72
2023-02-22T01:47:43.459Z,100447.50
2023-02-22T01:49:47.795Z,100449.38
2023-02-22T01:51:52.294Z,100441.50
2023-02-22T01:53:58.515Z,100446.75
2023-02-22T01:56:00.885Z,100440.81
2023-02-22T01:58:04.068Z,100443.50
2023-02-22T02:00:10.531Z,100438.34
2023-02-22T02:02:13.839Z,100435.44
2023-02-22T02:04:20.319Z,100436.50
2023-02-22T02:06:21.936Z,100442.22
2023-02-22T02:08:31.673Z,100441.16
2023-02-22T02:10:33.444Z,100431.41
2023-02-22T02:12:36.381Z,100431.94
2023-02-22T02:14:38.625Z,100426.25
2023-02-22T02:16:44.479Z,100424.69
2023-02-22T02:18:46.095Z,100426.91
2023-02-22T02:21:06.404Z,100432.00
2023-02-22T02:23:36.906Z,100427.47
2023-02-22T02:26:07.948Z,100428.13
2023-02-22T02:28:57.148Z,100421.94
2023-02-22T02:31:42.621Z,100417.16
2023-02-22T02:33:51.743Z,100413.59
2023-02-22T02:36:01.465Z,100413.31
2023-02-22T02:38:10.741Z,100414.44
2023-02-22T02:40:21.996Z,100408.75
2023-02-22T02:42:33.024Z,100408.78
2023-02-22T02:44:40.923Z,100407.19
2023-02-22T02:46:49.152Z,100405.09
2023-02-22T02:48:56.241Z,100402.19
2023-02-22T02:51:00.306Z,100402.50
2023-02-22T02:53:06.922Z,100407.88
2023-02-22T02:55:10.353Z,100405.44
2023-02-22T02:57:12.375Z,100403.53
2023-02-22T02:59:25.790Z,100402.19
2023-02-22T03:01:46.999Z,100398.19
2023-02-22T03:04:05.855Z,100399.56
2023-02-22T03:06:22.825Z,100397.88
2023-02-22T03:08:31.523Z,100398.72
2023-02-22T03:10:50.357Z,100393.84
2023-02-22T03:13:01.121Z,100395.72
2023-02-22T03:15:13.209Z,100393.31
2023-02-22T03:17:19.322Z,100393.38
2023-02-22T03:19:28.007Z,100389.63
2023-02-22T03:21:33.799Z,100387.19
2023-02-22T03:23:42.996Z,100388.88
2023-02-22T03:25:50.178Z,100391.00
2023-02-22T03:27:55.465Z,100390.53
2023-02-22T03:30:02.464Z,100382.69
2023-02-22T03:32:09.136Z,100394.03
2023-02-22T03:34:15.110Z,100388.38
2023-02-22T03:36:22.110Z,100387.78
2023-02-22T03:38:28.156Z,100389.41
2023-02-22T03:40:34.887Z,100388.31
2023-02-22T03:42:38.106Z,100379.47
2023-02-22T03:44:43.242Z,100380.06
2023-02-22T03:46:47.704Z,100385.78
2023-02-22T03:48:54.631Z,100376.13
2023-02-22T03:50:56.286Z,100382.63
2023-02-22T03:52:59.304Z,100379.63
2023-02-22T03:55:02.566Z,100382.88
2023-02-22T03:57:08.329Z,100372.94
2023-02-22T03:59:11.134Z,100372.94
2023-02-22T04:01:13.175Z,100380.22
2023-02-22T04:03:14.797Z,100372.94
2023-02-22T04:05:16.678Z,100374.56
2023-02-22T04:07:18.519Z,100374.00
2023-02-22T04:09:21.515Z,100375.06
2023-02-22T04:11:23.527Z,100365.34
2023-02-22T04:13:25.071Z,100365.09
2023-02-22T04:15:26.698Z,100369.16
2023-02-22T04:17:28.262Z,100373.72
2023-02-22T04:19:29.955Z,100371.66
2023-02-22T04:21:31.539Z,100369.50
2023-02-22T04:23:33.085Z,100370.00
2023-02-22T04:25:36.325Z,100366.75
2023-02-22T04:27:38.065Z,100373.19
2023-02-22T04:29:39.669Z,100364.56
2023-02-22T04:31:41.395Z,100365.69
2023-02-22T04:33:43.088Z,100367.84
2023-02-22T04:35:44.633Z,100369.75
2023-02-22T04:37:46.277Z,100370.84
2023-02-22T04:39:48.160Z,100375.19
2023-02-22T04:41:51.445Z,100371.97
2023-02-22T04:43:53.118Z,100372.25
2023-02-22T04:45:54.667Z,100375.47
2023-02-22T04:47:56.269Z,100376.56
2023-02-22T04:49:57.962Z,100381.09
2023-02-22T04:51:59.561Z,100377.88
2023-02-22T04:54:01.237Z,100372.50
2023-02-22T04:56:02.911Z,100381.94
2023-02-22T04:58:07.098Z,100379.78
2023-02-22T05:00:10.594Z,100373.56
2023-02-22T05:02:12.264Z,100379.25
2023-02-22T05:04:14.032Z,100372.03
2023-02-22T05:06:16.403Z,100375.75
2023-02-22T05:08:18.123Z,100376.28
2023-02-22T05:10:19.769Z,100376.84
2023-02-22T05:12:21.376Z,100376.59
2023-02-22T05:14:24.374Z,100375.50
2023-02-22T05:16:25.934Z,100373.59
2023-02-22T05:18:27.956Z,100369.28
2023-02-22T05:20:31.521Z,100367.13
2023-02-22T05:22:33.059Z,100361.47
2023-02-22T05:24:34.603Z,100362.84
2023-02-22T05:26:36.282Z,100364.22
2023-02-22T05:28:37.832Z,100364.75
2023-02-22T05:30:41.470Z,100358.81
2023-02-22T05:32:43.625Z,100360.97
2023-02-22T05:34:46.106Z,100352.34
2023-02-22T05:36:47.676Z,100359.88
2023-02-22T05:38:49.575Z,100363.63
2023-02-22T05:40:51.130Z,100357.72
2023-02-22T05:42:53.541Z,100353.16
2023-02-22T05:44:55.157Z,100358.50
2023-02-22T05:46:58.074Z,100352.53
2023-02-22T05:48:59.625Z,100351.75
2023-02-22T05:51:01.247Z,100350.72
2023-02-22T05:53:02.821Z,100348.53
2023-02-22T05:55:04.918Z,100344.22
2023-02-22T05:57:06.689Z,100353.34
2023-02-22T05:59:08.293Z,100348.78
2023-02-22T06:01:09.842Z,100349.09
2023-02-22T06:03:12.924Z,100347.50
2023-02-22T06:05:14.527Z,100351.81
2023-02-22T06:07:16.182Z,100348.59
2023-02-22T06:09:17.851Z,100349.72
2023-02-22T06:11:19.621Z,100349.72
2023-02-22T06:13:21.370Z,100348.63
2023-02-22T06:15:24.849Z,100357.28
2023-02-22T06:17:26.394Z,100368.28
2023-02-22T06:19:29.333Z,100349.72
2023-02-22T06:21:31.028Z,100358.88
2023-02-22T06:23:32.583Z,100369.91
2023-02-22T06:25:34.219Z,100364.53
2023-02-22T06:27:36.378Z,100374.19
2023-02-22T06:29:38.277Z,100373.66
2023-02-22T06:31:40.060Z,100372.84
2023-02-22T06:33:41.840Z,100369.63
2023-02-22T06:35:44.874Z,100369.34
2023-02-22T06:37:46.516Z,100382.00
2023-02-22T06:39:48.188Z,100373.91
2023-02-22T06:41:50.209Z,100378.47
2023-02-22T06:43:51.855Z,100386.81
2023-02-22T06:45:53.661Z,100387.38
2023-02-22T06:47:55.342Z,100391.13
2023-02-22T06:49:59.092Z,100387.38
2023-02-22T06:52:04.494Z,100387.38
2023-02-22T06:54:06.137Z,100388.16
2023-02-22T06:56:07.764Z,100394.63
2023-02-22T06:58:09.550Z,100393.53
2023-02-22T07:00:12.377Z,100399.44
2023-02-22T07:02:14.590Z,100396.25
2023-02-22T07:04:16.579Z,100400.25
2023-02-22T07:06:18.179Z,100403.50
2023-02-22T07:08:21.140Z,100401.06
2023-02-22T07:10:25.091Z,100406.72
2023-02-22T07:12:26.623Z,100402.66
2023-02-22T07:14:28.234Z,100402.38
2023-02-22T07:16:29.881Z,100406.97
2023-02-22T07:18:31.530Z,100399.94
2023-02-22T07:20:33.442Z,100398.88
2023-02-22T07:22:35.067Z,100402.09
2023-02-22T07:24:38.126Z,100406.66
2023-02-22T07:26:42.819Z,100409.59
2023-02-22T07:28:44.648Z,100401.78
2023-02-22T07:30:46.314Z,100406.56
2023-02-22T07:32:48.213Z,100409.78
2023-02-22T07:34:49.925Z,100410.03
2023-02-22T07:36:57.570Z,100407.34
2023-02-22T07:38:59.225Z,100399.88
2023-02-22T07:41:02.529Z,100402.25
2023-02-22T07:43:07.209Z,100406.28
2023-02-22T07:45:11.917Z,100405.97
2023-02-22T07:47:13.519Z,100407.53
2023-02-22T07:49:15.963Z,100409.16
2023-02-22T07:51:18.213Z,100404.25
2023-02-22T07:53:22.893Z,100398.63
2023-02-22T07:55:26.986Z,100399.16
2023-02-22T07:57:29.962Z,100402.88
2023-02-22T07:59:31.662Z,100395.56
2023-02-22T08:01:33.285Z,100399.63
2023-02-22T08:03:35.395Z,100408.72
2023-02-22T08:05:38.372Z,100408.66
2023-02-22T08:07:40.284Z,100409.09
2023-02-22T08:09:41.932Z,100405.59
2023-02-22T08:11:43.601Z,100412.59
2023-02-22T08:13:46.643Z,100410.38
2023-02-22T08:15:49.881Z,100410.59
2023-02-22T08:17:51.834Z,100396.72
2023-02-22T08:19:53.855Z,100403.63
2023-02-22T08:21:55.449Z,100402.88
2023-02-22T08:23:57.056Z,100404.88
2023-02-22T08:26:04.703Z,100397.31
2023-02-22T08:28:09.088Z,100403.41
2023-02-22T08:30:17.487Z,100403.59
2023-02-22T08:32:19.670Z,100397.56
2023-02-22T08:34:21.363Z,100388.06
2023-02-22T08:36:23.239Z,100389.09
2023-02-22T08:38:27.318Z,100387.94
2023-02-22T08:40:31.429Z,100393.78
2023-02-22T08:42:33.183Z,100396.91
2023-02-22T08:44:35.027Z,100402.53
2023-02-22T08:46:38.089Z,100393.28
2023-02-22T08:48:49.367Z,100395.56
2023-02-22T08:50:51.149Z,100395.09
2023-02-22T08:52:54.689Z,100396.28
2023-02-22T08:54:56.526Z,100402.00
2023-02-22T08:56:58.298Z,100400.09
2023-02-22T08:59:00.302Z,100399.59
2023-02-22T09:01:01.999Z,100399.56
2023-02-22T09:03:06.563Z,100400.25
2023-02-22T09:05:08.476Z,100398.81
2023-02-22T09:07:10.854Z,100401.00
2023-02-22T09:09:12.511Z,100398.22
2023-02-22T09:11:14.256Z,100397.56
2023-02-22T09:13:16.035Z,100394.84
2023-02-22T09:15:18.344Z,100392.81
2023-02-22T09:17:20.031Z,100390.22
2023-02-22T09:19:23.126Z,100388.91
2023-02-22T09:21:24.726Z,100386.88
2023-02-22T09:23:26.333Z,100389.22
2023-02-22T09:25:28.824Z,100390.31
2023-02-22T09:27:30.486Z,100389.75
2023-02-22T09:29:32.089Z,100387.00
2023-02-22T09:31:35.789Z,100384.66
2023-02-22T09:33:37.590Z,100379.84
2023-02-22T09:35:42.189Z,100376.75
2023-02-22T09:37:43.973Z,100376.44
2023-02-22T09:39:45.599Z,100380.31
2023-02-22T09:41:56.833Z,100367.72
2023-02-22T09:44:11.533Z,100374.84
2023-02-22T09:46:22.457Z,100373.28
2023-02-22T09:48:25.000Z,100372.84
2023-02-22T09:50:30.439Z,100367.59
2023-02-22T09:52:39.372Z,100373.25
2023-02-22T09:54:45.996Z,100367.41
2023-02-22T09:56:49.833Z,100364.69
2023-02-22T09:58:55.359Z,100366.97
2023-02-22T10:01:03.764Z,100362.94
2023-02-22T10:03:18.967Z,100357.75
2023-02-22T10:05:25.898Z,100357.16
2023-02-22T10:07:33.292Z,100353.53
2023-02-22T10:09:41.538Z,100361.41
2023-02-22T10:11:52.062Z,100360.63
2023-02-22T10:14:05.725Z,100356.31
2023-02-22T10:16:13.776Z,100349.97
2023-02-22T10:18:43.767Z,100345.03
2023-02-22T10:20:54.255Z,100340.25
2023-02-22T10:23:05.398Z,100338.16
2023-02-22T10:25:14.843Z,100343.44
2023-02-22T10:27:19.545Z,100338.78
2023-02-22T10:29:31.802Z,100342.47
2023-02-22T10:31:37.117Z,100343.41
2023-02-22T10:33:46.496Z,100334.91
2023-02-22T10:35:48.827Z,100334.53
2023-02-22T10:37:55.284Z,100332.66
2023-02-22T10:40:01.799Z,100327.31
2023-02-22T10:42:07.604Z,100331.28
2023-02-22T10:44:09.510Z,100328.25
2023-02-22T10:46:17.526Z,100328.16
2023-02-22T10:48:21.470Z,100325.69
2023-02-22T10:50:23.097Z,100332.50
2023-02-22T10:52:26.506Z,100325.28
2023-02-22T10:54:33.464Z,100322.97
2023-02-22T10:56:35.229Z,100330.75
2023-02-22T10:58:47.703Z,100325.41
2023-02-22T11:00:49.469Z,100324.59
2023-02-22T11:02:53.584Z,100325.31
2023-02-22T11:04:57.732Z,100320.66
2023-02-22T11:07:10.548Z,100312.19
2023-02-22T11:09:15.425Z,100315.56
2023-02-22T11:11:25.669Z,100308.53
2023-02-22T11:13:30.381Z,100308.59
2023-02-22T11:15:33.433Z,100315.00
2023-02-22T11:17:35.414Z,100305.78
2023-02-22T11:19:37.179Z,100312.84
2023-02-22T11:21:39.556Z,100305.50
2023-02-22T11:23:44.821Z,100304.66
2023-02-22T11:26:03.208Z,100292.28
2023-02-22T11:28:09.264Z,100301.03
2023-02-22T11:30:29.375Z,100295.91
2023-02-22T11:32:32.763Z,100294.91
2023-02-22T11:34:39.600Z,100286.88
2023-02-22T11:36:42.673Z,100279.66
2023-02-22T11:38:54.832Z,100283.47
2023-02-22T11:41:15.446Z,100273.16
2023-02-22T11:43:21.242Z,100276.66
2023-02-22T11:45:23.189Z,100276.41
2023-02-22T11:47:25.038Z,100277.81
2023-02-22T11:49:35.595Z,100271.78
2023-02-22T11:51:53.352Z,100267.47
2023-02-22T11:54:15.669Z,100263.66
2023-02-22T11:56:35.712Z,100262.56
2023-02-22T11:58:45.341Z,100262.09
2023-02-22T12:00:56.086Z,100266.63
2023-02-22T12:03:28.899Z,100254.22
2023-02-22T12:05:45.041Z,100252.72
2023-02-22T12:08:10.691Z,100241.47
2023-02-22T12:10:26.863Z,100250.69
2023-02-22T12:12:35.989Z,100240.06
2023-02-22T12:14:48.864Z,100245.25
2023-02-22T12:17:07.292Z,100244.94
2023-02-22T12:19:16.389Z,100235.94
2023-02-22T12:21:25.232Z,100233.94
2023-02-22T12:23:36.859Z,100231.56
2023-02-22T12:25:43.837Z,100233.19
2023-02-22T12:27:48.760Z,100230.03
2023-02-22T12:29:54.826Z,100228.06
2023-02-22T12:32:07.416Z,100226.47
2023-02-22T12:34:17.209Z,100234.00
2023-02-22T12:36:26.028Z,100228.50
2023-02-22T12:38:34.915Z,100227.72
2023-02-22T12:40:44.422Z,100229.69
2023-02-22T12:42:53.498Z,100224.53
2023-02-22T12:45:00.592Z,100219.69
2023-02-22T12:47:05.121Z,100225.88
2023-02-22T12:49:16.411Z,100210.31
2023-02-22T12:51:27.734Z,100213.97
2023-02-22T12:53:34.765Z,100214.91
2023-02-22T12:55:42.770Z,100218.56
2023-02-22T12:57:53.944Z,100213.00
2023-02-22T13:00:00.934Z,100214.25
2023-02-22T13:02:11.090Z,100208.38
2023-02-22T13:04:20.424Z,100214.81
2023-02-22T13:06:40.477Z,100202.22
2023-02-22T13:08:51.123Z,100203.31
2023-02-22T13:11:01.589Z,100205.75
2023-02-22T13:13:12.541Z,100203.50
2023-02-22T13:15:18.900Z,100205.31
2023-02-22T13:17:28.937Z,100196.50
2023-02-22T13:19:42.068Z,100199.88
2023-02-22T13:21:53.102Z,100198.28
2023-02-22T13:24:00.957Z,100190.22
2023-02-22T13:26:11.458Z,100198.16
2023-02-22T13:28:24.388Z,100201.09
2023-02-22T13:30:35.213Z,100185.22
2023-02-22T13:32:52.922Z,100195.13
2023-02-22T13:35:26.450Z,100194.25
2023-02-22T13:37:46.164Z,100188.22
2023-02-22T13:40:25.782Z,100187.59
2023-02-22T13:42:48.908Z,100183.56
2023-02-22T13:45:09.734Z,100184.84
2023-02-22T13:47:42.909Z,100181.53
2023-02-22T13:49:58.808Z,100182.84
2023-02-22T13:52:08.522Z,100180.03
2023-02-22T13:54:20.833Z,100180.66
2023-02-22T13:56:27.283Z,100181.56
2023-02-22T13:58:31.471Z,100186.78
2023-02-22T14:00:46.564Z,100177.38
2023-02-22T14:03:01.888Z,100172.97
2023-02-22T14:05:39.045Z,100175.09
2023-02-22T14:07:49.663Z,100181.63
2023-02-22T14:09:54.285Z,100174.19
2023-02-22T14:11:56.112Z,100177.53
2023-02-22T14:14:11.268Z,100162.84
2023-02-22T14:16:20.018Z,100169.75
2023-02-22T14:18:22.510Z,100169.53
2023-02-22T14:20:27.570Z,100163.59
2023-02-22T14:22:30.199Z,100162.09
2023-02-22T14:24:43.035Z,100168.34
2023-02-22T14:26:58.222Z,100166.94
2023-02-22T14:29:02.754Z,100158.91
2023-02-22T14:31:07.360Z,100161.78
2023-02-22T14:33:50.416Z,100162.69
2023-02-22T14:35:52.182Z,100170.97
2023-02-22T14:37:56.094Z,100161.97
2023-02-22T14:40:01.873Z,100163.38
2023-02-22T14:42:10.306Z,100160.56
2023-02-22T14:44:13.426Z,100162.94
2023-02-22T14:46:25.624Z,100160.38
2023-02-22T14:48:31.226Z,100156.50
2023-02-22T14:50:42.688Z,100162.78
2023-02-22T14:52:48.626Z,100164.41
2023-02-22T14:55:02.151Z,100163.69
2023-02-22T14:57:11.192Z,100158.75
2023-02-22T14:59:18.356Z,100165.63
2023-02-22T15:01:31.241Z,100163.34
2023-02-22T15:03:38.464Z,100162.38
2023-02-22T15:05:40.573Z,100155.06
2023-02-22T15:07:51.889Z,100159.75
2023-02-22T15:10:06.817Z,100155.16
2023-02-22T15:12:16.025Z,100153.94
2023-02-22T15:14:25.819Z,100151.97
2023-02-22T15:16:30.498Z,100153.38
2023-02-22T15:18:35.306Z,100158.50
2023-02-22T15:20:37.297Z,100152.84
2023-02-22T15:22:38.969Z,100157.19
2023-02-22T15:24:40.548Z,100149.09
2023-02-22T15:26:58.953Z,100150.34
2023-02-22T15:29:09.249Z,100148.16
2023-02-22T15:31:23.143Z,100146.75
2023-02-22T15:33:29.816Z,100143.56
2023-02-22T15:35:32.775Z,100143.19
2023-02-22T15:37:34.485Z,100142.06
2023-02-22T15:39:36.258Z,100141.00
2023-02-22T15:41:38.678Z,100148.81
2023-02-22T15:43:41.080Z,100136.63
2023-02-22T15:45:45.948Z,100135.03
2023-02-22T15:47:49.527Z,100145.88
2023-02-22T15:50:16.164Z,100141.75
2023-02-22T15:52:20.501Z,100133.47
2023-02-22T15:54:27.583Z,100144.53
2023-02-22T15:56:31.859Z,100146.25
2023-02-22T15:58:34.348Z,100143.63
2023-02-22T16:00:38.420Z,100152.28
2023-02-22T16:02:41.558Z,100145.03
2023-02-22T16:04:48.537Z,100150.16
2023-02-22T16:07:06.090Z,100154.81
2023-02-22T16:09:09.531Z,100152.19
2023-02-22T16:11:16.807Z,100154.56
2023-02-22T16:13:31.541Z,100154.72
2023-02-22T16:15:34.799Z,100156.19
2023-02-22T16:17:44.566Z,100157.47
2023-02-22T16:19:53.258Z,100155.16
2023-02-22T16:21:56.914Z,100152.84
2023-02-22T16:24:10.335Z,100158.91
2023-02-22T16:26:28.628Z,100159.72
2023-02-22T16:28:31.124Z,100156.50
2023-02-22T16:30:34.694Z,100160.94
2023-02-22T16:32:36.436Z,100154.22
2023-02-22T16:34:38.093Z,100162.31
2023-02-22T16:36:45.847Z,100165.50
2023-02-22T16:38:47.757Z,100166.16
2023-02-22T16:40:51.696Z,100171.38
2023-02-22T16:42:53.326Z,100171.94
2023-02-22T16:44:54.897Z,100167.72
2023-02-22T16:46:58.211Z,100172.59
2023-02-22T16:48:59.921Z,100174.88
2023-02-22T16:51:09.168Z,100174.41
2023-02-22T16:53:12.332Z,100181.69
2023-02-22T16:55:17.297Z,100173.91
2023-02-22T16:57:22.342Z,100178.56
2023-02-22T16:59:23.998Z,100177.34
2023-02-22T17:01:25.719Z,100177.22
2023-02-22T17:03:27.613Z,100171.59
2023-02-22T17:05:29.911Z,100174.34
2023-02-22T17:07:31.597Z,100178.66
2023-02-22T17:09:34.815Z,100173.09
2023-02-22T17:11:37.985Z,100193.06
2023-02-22T17:13:39.754Z,100188.53
2023-02-22T17:15:44.468Z,100187.13
2023-02-22T17:17:46.217Z,100196.63
2023-02-22T17:19:48.167Z,100188.25
2023-02-22T17:21:50.239Z,100193.69
2023-02-22T17:23:51.973Z,100198.69
2023-02-22T17:25:56.456Z,100201.75
2023-02-22T17:27:58.127Z,100196.03
2023-02-22T17:30:00.043Z,100198.41
2023-02-22T17:32:01.862Z,100200.81
2023-02-22T17:34:04.684Z,100203.22
2023-02-22T17:36:07.286Z,100207.88
2023-02-22T17:38:09.089Z,100207.19
2023-02-22T17:40:10.859Z,100204.81
2023-02-22T17:42:13.815Z,100205.94
2023-02-22T17:44:15.590Z,100206.53
2023-02-22T17:46:17.571Z,100208.31
2023-02-22T17:48:19.755Z,100212.97
2023-02-22T17:50:22.921Z,100207.88
2023-02-22T17:52:27.547Z,100216.50
2023-02-22T17:54:29.225Z,100213.31
2023-02-22T17:56:30.892Z,100213.16
2023-02-22T17:58:33.903Z,100209.06
2023-02-22T18:00:36.901Z,100212.13
2023-02-22T18:02:38.817Z,100216.41
2023-02-22T18:04:40.431Z,100216.88
2023-02-22T18:06:42.080Z,100214.03
2023-02-22T18:08:46.154Z,100214.25
2023-02-22T18:10:47.905Z,100225.78
2023-02-22T18:12:49.476Z,100218.94
2023-02-22T18:14:53.144Z,100218.44
2023-02-22T18:16:54.796Z,100218.44
2023-02-22T18:18:56.664Z,100222.78
2023-02-22T18:20:58.463Z,100222.13
2023-02-22T18:23:00.553Z,100222.63
2023-02-22T18:25:02.171Z,100220.72
2023-02-22T18:27:03.841Z,100227.47
2023-02-22T18:29:05.634Z,100221.91
2023-02-22T18:31:10.709Z,100226.88
2023-02-22T18:33:12.962Z,100225.47
2023-02-22T18:35:14.580Z,100226.59
2023-02-22T18:37:16.195Z,100226.13
2023-02-22T18:39:18.467Z,100225.00
2023-02-22T18:41:21.962Z,100229.19
2023-02-22T18:43:24.035Z,100221.69
2023-02-22T18:45:27.872Z,100219.78
2023-02-22T18:47:31.500Z,100220.91
2023-02-22T18:49:33.159Z,100221.91
2023-02-22T18:51:34.825Z,100226.66
2023-02-22T18:53:36.808Z,100224.28
2023-02-22T18:55:38.423Z,100224.28
2023-02-22T18:57:40.885Z,100232.13
2023-02-22T18:59:43.686Z,100219.47
2023-02-22T19:01:45.272Z,100223.16
2023-02-22T19:03:48.730Z,100224.94
2023-02-22T19:05:52.293Z,100223.03
2023-02-22T19:07:53.920Z,100225.75
2023-02-22T19:09:55.502Z,100221.13
2023-02-22T19:11:57.175Z,100226.88
2023-02-22T19:13:58.956Z,100223.53
2023-02-22T19:16:01.911Z,100224.84
2023-02-22T19:18:03.894Z,100224.22
2023-02-22T19:20:07.792Z,100219.75
2023-02-22T19:22:09.907Z,100211.75
2023-02-22T19:24:11.573Z,100223.75
2023-02-22T19:26:14.869Z,100225.81
2023-02-22T19:28:16.576Z,100224.03
2023-02-22T19:30:18.277Z,100222.97
2023-02-22T19:32:20.091Z,100223.59
2023-02-22T19:34:22.023Z,100216.91
2023-02-22T19:36:24.987Z,100219.94
2023-02-22T19:38:26.647Z,100215.81
2023-02-22T19:40:28.659Z,100212.41
2023-02-22T19:42:30.243Z,100210.22
2023-02-22T19:44:32.011Z,100214.41
2023-02-22T19:46:34.094Z,100212.94
2023-02-22T19:48:35.689Z,100221.59
2023-02-22T19:50:37.266Z,100218.22
2023-02-22T19:52:40.581Z,100217.41
2023-02-22T19:54:42.432Z,100219.00
2023-02-22T19:56:44.073Z,100224.16
2023-02-22T19:58:47.618Z,100215.34
2023-02-22T20:00:49.269Z,100222.22
2023-02-22T20:02:57.119Z,100219.94
2023-02-22T20:04:58.822Z,100221.09
2023-02-22T20:07:00.441Z,100221.25
2023-02-22T20:09:03.653Z,100210.53
2023-02-22T20:11:07.009Z,100222.41
2023-02-22T20:13:08.796Z,100225.44
2023-02-22T20:15:10.402Z,100228.16
2023-02-22T20:17:12.082Z,100224.31
2023-02-22T20:19:13.907Z,100225.75
2023-02-22T20:21:19.540Z,100233.41
2023-02-22T20:23:21.620Z,100225.59
2023-02-22T20:25:24.601Z,100239.34
2023-02-22T20:27:26.229Z,100231.81
2023-02-22T20:29:27.967Z,100227.03
2023-02-22T20:31:30.794Z,100223.38
2023-02-22T20:33:32.575Z,100238.22
2023-02-22T20:35:34.267Z,100238.69
2023-02-22T20:37:35.896Z,100238.69
2023-02-22T20:39:37.570Z,100243.34
2023-02-22T20:41:42.030Z,100242.66
2023-02-22T20:43:43.621Z,100248.25
2023-02-22T20:45:45.279Z,100249.53
2023-02-22T20:47:47.022Z,100239.94
2023-02-22T20:49:48.645Z,100231.97
2023-02-22T20:51:50.492Z,100240.75
2023-02-22T20:53:52.573Z,100230.50
2023-02-22T20:55:54.165Z,100232.44
2023-02-22T20:57:57.263Z,100236.88
2023-02-22T20:59:58.843Z,100236.41
2023-02-22T21:02:00.412Z,100236.75
2023-02-22T21:04:04.345Z,100239.75
2023-02-22T21:06:07.343Z,100238.97
2023-02-22T21:08:09.122Z,100236.88
2023-02-22T21:10:10.744Z,100239.13
2023-02-22T21:12:12.355Z,100246.97
2023-02-22T21:14:16.571Z,100242.66
2023-02-22T21:16:21.809Z,100249.03
2023-02-22T21:18:25.074Z,100239.13
2023-02-22T21:20:26.809Z,100247.88
2023-02-22T21:22:29.229Z,100244.22
2023-02-22T21:24:30.875Z,100249.50
2023-02-22T21:26:34.596Z,100244.84
2023-02-22T21:28:50.449Z,100248.06
2023-02-22T21:30:54.177Z,100246.63
2023-02-22T21:32:55.857Z,100254.75
2023-02-22T21:34:57.399Z,100246.94
2023-02-22T21:36:59.084Z,100254.75
2023-02-22T21:39:02.670Z,100244.38
2023-02-22T21:41:05.086Z,100251.41
2023-02-22T21:43:06.928Z,100247.25
2023-02-22T21:45:09.498Z,100252.22
2023-02-22T21:47:12.486Z,100252.41
2023-02-22T21:49:14.166Z,100254.28
2023-02-22T21:51:18.716Z,100249.97
2023-02-22T21:53:20.516Z,100248.38
2023-02-22T21:55:22.246Z,100247.75
2023-02-22T21:57:23.778Z,100247.25
2023-02-22T21:59:25.345Z,100243.28
2023-02-22T22:01:27.549Z,100242.94
2023-02-22T22:03:33.388Z,100242.13
2023-02-22T22:05:38.910Z,100242.47
2023-02-22T22:07:40.468Z,100244.03
2023-02-22T22:09:42.040Z,100243.09
2023-02-22T22:11:45.087Z,100245.00
2023-02-22T22:13:47.099Z,100245.97
2023-02-22T22:15:48.737Z,100246.41
2023-02-22T22:17:50.385Z,100239.38
2023-02-22T22:19:53.386Z,100245.16
2023-02-22T22:21:55.185Z,100239.38
2023-02-22T22:23:56.785Z,100238.59
2023-02-22T22:26:01.535Z,100236.53
2023-02-22T22:28:03.245Z,100236.69
2023-02-22T22:30:06.388Z,100245.63
2023-02-22T22:32:08.223Z,100241.47
2023-02-22T22:34:09.888Z,100242.63
2023-02-22T22:36:15.846Z,100231.75
2023-02-22T22:38:17.461Z,100235.59
2023-02-22T22:40:19.267Z,100236.41
2023-02-22T22:42:21.279Z,100234.16
2023-02-22T22:44:23.036Z,100241.47
2023-02-22T22:46:24.727Z,100236.88
2023-02-22T22:48:26.551Z,100239.59
2023-02-22T22:50:28.282Z,100239.59
2023-02-22T22:52:31.276Z,100239.25
2023-02-22T22:54:33.000Z,100246.28
2023-02-22T22:56:34.672Z,100247.06
2023-02-22T22:58:36.258Z,100251.84
2023-02-22T23:00:37.944Z,100243.53
2023-02-22T23:02:39.637Z,100248.03
2023-02-22T23:04:41.325Z,100244.97
2023-02-22T23:06:44.650Z,100248.03
2023-02-22T23:08:47.681Z,100246.88
2023-02-22T23:10:49.267Z,100243.53
2023-02-22T23:12:50.895Z,100243.88
2023-02-22T23:14:52.580Z,100248.47
2023-02-22T23:16:55.223Z,100250.09
2023-02-22T23:18:56.902Z,100247.84
2023-02-22T23:21:00.170Z,100246.41
2023-02-22T23:23:01.769Z,100249.44
2023-02-22T23:25:06.454Z,100244.66
2023-02-22T23:27:08.146Z,100251.19
2023-02-22T23:29:09.730Z,100251.97
2023-02-22T23:31:13.919Z,100254.69
2023-02-22T23:33:15.571Z,100256.16
2023-02-22T23:35:17.568Z,100250.88
2023-02-22T23:37:21.542Z,100251.66
2023-02-22T23:39:23.905Z,100253.72
2023-02-22T23:41:26.858Z,100253.53
2023-02-22T23:43:28.507Z,100258.47
2023-02-22T23:45:30.274Z,100253.88
2023-02-22T23:47:33.495Z,100259.47